Time;durP1;ratioP1;P1;durP2;ratioP2;P2;SDS_P1;SDS_P2;PMS_P1;PMS_P2;Temp;Humidity;BMP_temperature;BMP_pressure;BME280_temperature;BME280_humidity;BME280_pressure;Samples;Min_cycle;Max_cycle;Signal;HPM_P1;HPM_P2
2023/05/02 00:00:27;;;;;;;12.75;9.77;;;;;;;13.99;71.00;99343.28;5032381;28;20026;-87
2023/05/02 00:02:53;;;;;;;11.82;9.20;;;;;;;14.02;70.99;99334.38;5032404;28;20034;-87
2023/05/02 00:05:18;;;;;;;11.57;9.52;;;;;;;13.76;70.73;99286.34;5032351;28;20045;-87
2023/05/02 00:07:44;;;;;;;11.10;9.18;;;;;;;14.05;70.87;99327.16;5032440;28;20026;-87
2023/05/02 00:10:09;;;;;;;11.77;9.18;;;;;;;14.05;70.76;99324.53;5033940;28;20034;-87
2023/05/02 00:12:35;;;;;;;10.40;9.10;;;;;;;14.00;70.75;99323.19;5032344;28;20041;-87
2023/05/02 00:15:00;;;;;;;10.68;9.20;;;;;;;14.03;70.99;99325.56;5031948;28;20440;-87
2023/05/02 00:17:26;;;;;;;10.85;9.13;;;;;;;13.98;70.83;99313.63;5032380;28;20036;-87
2023/05/02 00:19:51;;;;;;;12.65;9.05;;;;;;;13.92;71.40;99316.66;5031998;28;20108;-87
2023/05/02 00:22:16;;;;;;;13.10;8.82;;;;;;;13.88;71.26;99311.72;5032193;28;20091;-87
2023/05/02 00:24:42;;;;;;;9.07;7.95;;;;;;;13.71;71.40;99292.72;5032206;28;20428;-87
2023/05/02 00:27:07;;;;;;;13.00;9.30;;;;;;;13.81;71.61;99316.50;5031482;28;20388;-87
2023/05/02 00:29:32;;;;;;;13.95;9.02;;;;;;;13.73;71.69;99306.53;5033080;28;20025;-87
2023/05/02 00:31:57;;;;;;;9.70;8.48;;;;;;;13.65;72.11;99303.59;5031640;28;20044;-87
2023/05/02 00:34:28;;;;;;;10.13;9.13;;;;;;;13.71;72.35;99310.22;5032865;28;20025;-87
2023/05/02 00:36:53;;;;;;;10.35;9.25;;;;;;;13.67;72.23;99304.31;5030518;28;20029;-87
2023/05/02 00:39:18;;;;;;;12.00;9.85;;;;;;;13.35;72.39;99258.47;5031717;28;20480;-87
2023/05/02 00:41:44;;;;;;;10.68;9.13;;;;;;;13.60;72.56;99303.03;5031559;28;20025;-87
2023/05/02 00:44:09;;;;;;;10.75;9.65;;;;;;;13.34;72.61;99267.25;5031243;28;20373;-87
2023/05/02 00:46:34;;;;;;;9.73;8.73;;;;;;;13.58;72.75;99306.72;5031623;28;20746;-87
2023/05/02 00:49:00;;;;;;;9.80;8.80;;;;;;;13.53;72.55;99293.09;5032590;28;20485;-87
2023/05/02 00:51:26;;;;;;;10.07;8.48;;;;;;;13.35;72.50;99254.06;5031397;28;20454;-87
2023/05/02 00:53:52;;;;;;;11.90;9.50;;;;;;;13.61;72.78;99293.41;5031099;28;20033;-87
2023/05/02 00:56:17;;;;;;;10.80;9.65;;;;;;;13.63;72.94;99305.47;5031311;28;20029;-87
2023/05/02 00:58:44;;;;;;;12.60;9.43;;;;;;;13.59;72.67;99293.50;5032502;28;20091;-87
2023/05/02 01:01:48;;;;;;;11.32;9.23;;;;;;;13.66;72.64;99307.91;5031059;28;20535;-87
2023/05/02 01:04:36;;;;;;;11.63;9.45;;;;;;;13.70;72.47;99303.31;5049301;28;20036;-87
2023/05/02 01:07:23;;;;;;;12.63;9.70;;;;;;;13.50;72.97;99267.13;5049502;28;20037;-87
2023/05/02 01:10:03;;;;;;;12.63;9.13;;;;;;;13.76;72.54;99313.34;5033182;28;20048;-87
2023/05/02 01:12:41;;;;;;;9.80;8.80;;;;;;;13.81;72.51;99310.44;5033076;28;20116;-87
2023/05/02 01:15:11;;;;;;;11.30;8.90;;;;;;;13.77;72.30;99301.09;5049513;28;20105;-87
2023/05/02 01:17:37;;;;;;;12.48;9.38;;;;;;;13.66;72.44;99294.81;5032846;28;20040;-87
2023/05/02 01:20:08;;;;;;;10.05;8.80;;;;;;;13.79;72.42;99297.47;5032727;28;20047;-87
2023/05/02 01:22:39;;;;;;;9.90;8.85;;;;;;;13.87;72.64;99310.88;5032917;28;20048;-87
2023/05/02 01:25:13;;;;;;;10.50;8.68;;;;;;;13.81;72.24;99300.81;5049511;28;20120;-86
2023/05/02 01:27:50;;;;;;;10.50;9.40;;;;;;;13.87;72.54;99317.91;5032672;28;20104;-87
2023/05/02 01:30:19;;;;;;;13.60;9.02;;;;;;;13.76;72.96;99305.50;5032563;28;20025;-86
2023/05/02 01:32:46;;;;;;;12.43;9.57;;;;;;;13.83;72.60;99316.44;5049368;28;20068;-87
2023/05/02 01:35:14;;;;;;;12.32;9.65;;;;;;;13.84;72.55;99316.31;5032580;28;20037;-87
2023/05/02 01:37:43;;;;;;;13.43;9.00;;;;;;;13.90;72.65;99322.91;5049524;28;20052;-87
2023/05/02 01:40:10;;;;;;;10.32;8.65;;;;;;;13.78;72.68;99303.66;5032544;28;20025;-87
2023/05/02 01:42:36;;;;;;;9.63;8.60;;;;;;;13.91;72.46;99316.78;5030273;28;20044;-88
2023/05/02 01:45:04;;;;;;;12.07;9.13;;;;;;;13.79;72.27;99289.63;5037036;28;20086;-87
2023/05/02 01:47:32;;;;;;;9.85;8.85;;;;;;;13.97;72.45;99325.03;5050187;28;20389;-87
2023/05/02 01:49:59;;;;;;;10.75;8.68;;;;;;;13.89;72.60;99316.00;5050303;28;20416;-87
2023/05/02 01:52:27;;;;;;;12.75;10.23;;;;;;;13.89;72.46;99308.16;5050381;28;20029;-87
2023/05/02 01:54:54;;;;;;;9.75;8.52;;;;;;;13.82;72.74;99306.88;5050292;28;20472;-87
2023/05/02 01:57:20;;;;;;;11.45;8.98;;;;;;;13.89;72.66;99314.22;5050305;28;20021;-87
2023/05/02 01:59:48;;;;;;;10.85;8.98;;;;;;;13.84;72.94;99318.94;5050503;28;20024;-87
2023/05/02 02:02:15;;;;;;;10.40;9.30;;;;;;;13.76;73.04;99302.06;5050218;28;20477;-88
2023/05/02 02:04:41;;;;;;;10.05;8.68;;;;;;;13.74;73.16;99310.03;5050419;28;20029;-87
2023/05/02 02:07:11;;;;;;;11.90;9.18;;;;;;;13.76;73.10;99308.13;5050101;28;20511;-87
2023/05/02 02:09:36;;;;;;;9.98;8.70;;;;;;;13.48;73.11;99275.91;5051392;28;20056;-87
2023/05/02 02:12:16;;;;;;;9.95;8.95;;;;;;;13.69;73.49;99314.69;5050002;28;20064;-87
2023/05/02 02:14:48;;;;;;;10.00;8.60;;;;;;;13.69;73.62;99322.53;5051573;28;20060;-87
2023/05/02 02:17:21;;;;;;;10.93;8.80;;;;;;;13.66;74.19;99313.13;5049945;28;20116;-87
2023/05/02 02:19:48;;;;;;;9.82;8.82;;;;;;;13.68;74.34;99332.16;5050110;28;20116;-87
2023/05/02 02:22:17;;;;;;;11.23;9.02;;;;;;;13.64;74.24;99329.84;5049877;28;20033;-87
2023/05/02 02:24:45;;;;;;;11.23;9.85;;;;;;;13.63;74.66;99326.41;5051446;28;20033;-87
2023/05/02 02:27:10;;;;;;;10.52;9.13;;;;;;;13.43;74.47;99311.97;5051079;28;20111;-87
2023/05/02 02:29:36;;;;;;;11.05;8.60;;;;;;;13.54;74.46;99328.78;5051524;28;20473;-87
2023/05/02 02:32:01;;;;;;;11.27;9.70;;;;;;;13.52;74.77;99325.41;5051194;28;20028;-87
2023/05/02 02:34:27;;;;;;;10.27;8.98;;;;;;;13.50;74.40;99340.38;5049924;28;20021;-87
2023/05/02 02:37:04;;;;;;;10.75;8.88;;;;;;;13.52;74.46;99348.94;5050061;28;20040;-87
2023/05/02 02:39:44;;;;;;;8.35;7.55;;;;;;;13.51;74.19;99347.28;5050264;28;20033;-87
2023/05/02 02:42:30;;;;;;;10.93;8.52;;;;;;;13.44;74.48;99345.06;5049421;28;20033;-87
2023/05/02 02:45:24;;;;;;;11.27;8.55;;;;;;;13.51;74.51;99355.13;5048282;28;20045;-87
2023/05/02 02:48:09;;;;;;;11.32;9.52;;;;;;;13.48;74.48;99346.56;5048543;28;20025;-87
2023/05/02 02:51:01;;;;;;;12.55;9.70;;;;;;;13.28;74.67;99331.28;5048655;28;20036;-87
2023/05/02 02:53:47;;;;;;;9.82;8.68;;;;;;;13.43;74.52;99347.75;5012049;28;20037;-87
2023/05/02 02:56:22;;;;;;;12.45;8.85;;;;;;;13.43;74.33;99348.59;5028575;28;20032;-87
2023/05/02 02:58:57;;;;;;;11.32;8.52;;;;;;;13.39;74.42;99338.44;5012764;28;20073;-87
2023/05/02 03:01:25;;;;;;;10.75;9.65;;;;;;;13.30;74.42;99315.47;5015559;28;20021;-87
2023/05/02 03:03:53;;;;;;;10.60;8.65;;;;;;;13.40;74.18;99334.88;5015522;28;20127;-87
2023/05/02 03:06:19;;;;;;;11.45;8.95;;;;;;;13.47;74.21;99347.47;5031788;28;20582;-87
2023/05/02 03:08:45;;;;;;;11.15;9.10;;;;;;;13.55;74.38;99364.47;5015563;28;20134;-87
2023/05/02 03:11:10;;;;;;;9.38;8.38;;;;;;;13.58;73.99;99372.97;5031794;28;20040;-87
2023/05/02 03:13:36;;;;;;;11.93;9.10;;;;;;;13.44;74.18;99355.53;5031926;28;20037;-87
2023/05/02 03:16:19;;;;;;;8.90;8.02;;;;;;;13.35;74.13;99342.16;5031671;28;20072;-87
2023/05/02 03:18:44;;;;;;;10.75;9.02;;;;;;;13.57;74.37;99378.28;5015349;28;20095;-87
2023/05/02 03:21:10;;;;;;;10.00;8.02;;;;;;;13.45;74.49;99372.91;5031767;28;20033;-87
2023/05/02 03:23:35;;;;;;;8.88;7.85;;;;;;;13.39;74.43;99370.66;5032208;28;20409;-86
2023/05/02 03:26:01;;;;;;;8.98;7.75;;;;;;;13.43;74.40;99372.13;5031998;28;20029;-87
2023/05/02 03:28:27;;;;;;;9.93;7.93;;;;;;;13.49;74.22;99391.88;5015045;28;20654;-87
2023/05/02 03:30:52;;;;;;;10.43;7.88;;;;;;;13.45;74.34;99385.97;5039750;28;20091;-87
2023/05/02 03:33:17;;;;;;;10.27;7.63;;;;;;;13.49;74.15;99397.09;5052609;28;20025;-87
2023/05/02 03:35:43;;;;;;;8.48;7.20;;;;;;;13.43;74.19;99400.91;5052884;28;20381;-87
2023/05/02 03:38:08;;;;;;;9.68;7.30;;;;;;;13.53;73.86;99414.28;5052538;28;20633;-87
2023/05/02 03:40:34;;;;;;;9.38;6.88;;;;;;;13.46;73.59;99395.50;5071222;28;20068;-87
2023/05/02 03:42:59;;;;;;;8.77;7.03;;;;;;;13.55;73.62;99408.94;5071249;28;20068;-87
2023/05/02 03:45:25;;;;;;;9.68;6.95;;;;;;;13.46;73.68;99397.28;5071218;28;20470;-87
2023/05/02 03:47:50;;;;;;;8.90;6.38;;;;;;;13.53;73.74;99406.44;5071353;28;20135;-87
2023/05/02 03:50:15;;;;;;;8.77;6.43;;;;;;;13.54;73.49;99413.34;5054301;28;20109;-87
2023/05/02 03:52:41;;;;;;;7.10;5.72;;;;;;;13.54;73.46;99404.66;5071416;28;20033;-87
2023/05/02 03:55:06;;;;;;;7.15;5.72;;;;;;;13.54;73.77;99407.28;5070924;28;20033;-87
2023/05/02 03:57:32;;;;;;;7.88;6.30;;;;;;;13.46;73.58;99395.50;5071222;28;20032;-87
2023/05/02 03:59:57;;;;;;;6.43;5.28;;;;;;;13.54;74.33;99412.50;5070960;28;20040;-87
2023/05/02 04:02:24;;;;;;;11.43;5.57;;;;;;;13.55;74.50;99425.47;5070746;28;20391;-87
2023/05/02 04:04:49;;;;;;;7.38;5.88;;;;;;;13.59;75.09;99434.81;5070907;28;20032;-87
2023/05/02 04:07:18;;;;;;;7.10;5.78;;;;;;;13.59;75.22;99436.59;5070717;28;20063;-87
2023/05/02 04:09:44;;;;;;;7.00;6.10;;;;;;;13.55;75.53;99429.88;5070621;28;20020;-87
2023/05/02 04:12:09;;;;;;;7.75;6.25;;;;;;;13.41;76.36;99412.44;5057537;28;20128;-87
2023/05/02 04:14:34;;;;;;;6.88;6.00;;;;;;;13.49;76.49;99431.09;5051833;28;20116;-87
2023/05/02 04:17:00;;;;;;;7.00;5.60;;;;;;;13.21;76.44;99384.84;5052157;28;20032;-86
2023/05/02 04:19:26;;;;;;;9.07;5.72;;;;;;;13.59;76.83;99450.53;5052913;28;20029;-87
2023/05/02 04:21:51;;;;;;;8.95;5.90;;;;;;;13.62;77.03;99449.50;5051877;28;20037;-86
2023/05/02 04:24:17;;;;;;;6.82;5.57;;;;;;;13.50;77.11;99440.63;5051677;28;20025;-87
2023/05/02 04:26:42;;;;;;;7.43;6.25;;;;;;;13.57;77.44;99452.41;5051629;28;20049;-87
2023/05/02 04:29:07;;;;;;;7.70;6.35;;;;;;;13.50;78.17;99461.56;5051455;28;20108;-86
2023/05/02 04:31:33;;;;;;;7.15;5.40;;;;;;;13.55;78.17;99462.13;5051832;28;20116;-87
2023/05/02 04:33:58;;;;;;;6.63;5.65;;;;;;;13.47;78.61;99462.59;5051649;28;20025;-87
2023/05/02 04:36:27;;;;;;;8.93;5.57;;;;;;;13.55;79.49;99475.19;5052638;28;20467;-87
2023/05/02 04:38:53;;;;;;;7.18;6.30;;;;;;;13.55;79.71;99472.59;5051601;28;20542;-87
2023/05/02 04:41:18;;;;;;;7.13;6.10;;;;;;;13.48;79.96;99468.66;5052534;28;20543;-87
2023/05/02 04:43:44;;;;;;;7.07;6.00;;;;;;;13.56;80.17;99484.72;5049952;28;20125;-87
2023/05/02 04:46:10;;;;;;;8.05;6.10;;;;;;;13.54;81.30;99484.00;5050047;28;20045;-87
2023/05/02 04:48:35;;;;;;;8.02;5.97;;;;;;;13.55;81.81;99483.03;5033552;28;20033;-87
2023/05/02 04:51:00;;;;;;;9.65;6.47;;;;;;;13.54;81.72;99502.31;5050105;28;20033;-88
2023/05/02 04:53:26;;;;;;;7.00;6.30;;;;;;;13.48;82.09;99484.34;5033061;28;20029;-87
2023/05/02 04:55:52;;;;;;;8.57;5.97;;;;;;;13.50;82.63;99482.50;5033339;28;20095;-87
2023/05/02 04:58:17;;;;;;;8.68;6.32;;;;;;;13.46;82.24;99481.00;5032945;28;20030;-88
2023/05/02 05:00:43;;;;;;;9.63;6.60;;;;;;;13.55;82.43;99498.75;5033254;28;20120;-87
2023/05/02 05:03:08;;;;;;;9.35;6.38;;;;;;;13.52;82.63;99496.31;5032903;28;20028;-88
2023/05/02 05:05:34;;;;;;;7.30;5.82;;;;;;;13.58;82.81;99509.03;5033164;28;20036;-88
2023/05/02 05:07:59;;;;;;;9.43;5.95;;;;;;;13.59;82.84;99507.25;5033296;28;20037;-88
2023/05/02 05:10:25;;;;;;;7.70;6.80;;;;;;;13.54;83.09;99496.22;5032973;28;20493;-88
2023/05/02 05:12:52;;;;;;;6.38;5.78;;;;;;;13.64;83.41;99513.88;5032881;28;20661;-87
2023/05/02 05:15:19;;;;;;;7.90;6.75;;;;;;;13.64;83.89;99515.66;5032848;28;20040;-87
2023/05/02 05:17:45;;;;;;;7.65;6.78;;;;;;;13.65;84.42;99518.19;5033044;28;20592;-87
2023/05/02 05:20:10;;;;;;;11.13;7.07;;;;;;;13.65;84.39;99520.81;5032872;28;20269;-88
2023/05/02 05:22:40;;;;;;;7.22;6.45;;;;;;;13.56;84.14;99497.81;5050116;28;20052;-87
2023/05/02 05:25:06;;;;;;;8.25;6.72;;;;;;;13.81;83.77;99535.56;5050747;28;20025;-87
2023/05/02 05:27:34;;;;;;;8.23;6.78;;;;;;;13.79;83.82;99530.44;5050187;28;20037;-87
2023/05/02 05:29:59;;;;;;;8.30;7.15;;;;;;;13.87;83.46;99543.06;5012979;28;20041;-88
2023/05/02 05:32:25;;;;;;;7.40;6.70;;;;;;;13.71;83.71;99515.19;5012829;28;20413;-88
2023/05/02 05:34:52;;;;;;;8.13;6.50;;;;;;;13.76;83.82;99514.06;5029400;28;20044;-87
2023/05/02 05:37:17;;;;;;;7.57;6.28;;;;;;;13.96;83.37;99540.69;5012723;28;20036;-87
2023/05/02 05:39:43;;;;;;;10.40;7.25;;;;;;;14.06;83.38;99540.13;5029491;28;20025;-87
2023/05/02 05:42:08;;;;;;;7.28;6.53;;;;;;;14.13;83.05;99541.44;5012731;28;20116;-87
2023/05/02 05:44:34;;;;;;;10.07;7.10;;;;;;;14.25;82.80;99543.28;5012931;28;20517;-87
2023/05/02 05:47:00;;;;;;;8.98;7.00;;;;;;;14.25;82.21;99524.09;5029381;28;20032;-87
2023/05/02 05:49:25;;;;;;;9.10;7.20;;;;;;;14.63;81.87;99560.97;5028683;28;20418;-87
2023/05/02 05:51:51;;;;;;;8.20;7.40;;;;;;;14.90;80.98;99561.78;5012522;28;20033;-87
2023/05/02 05:54:17;;;;;;;8.57;7.68;;;;;;;15.18;79.99;99560.78;5012449;28;20065;-87
2023/05/02 05:56:43;;;;;;;9.43;7.65;;;;;;;15.49;79.10;99569.22;5029269;28;20033;-87
2023/05/02 05:59:08;;;;;;;9.57;8.25;;;;;;;15.67;77.72;99575.00;5029307;28;20036;-87
2023/05/02 06:01:34;;;;;;;8.40;7.30;;;;;;;15.88;76.70;99584.03;5012458;28;20132;-87
2023/05/02 06:04:00;;;;;;;8.35;7.10;;;;;;;15.99;76.12;99566.69;5029305;28;20041;-87
2023/05/02 06:06:26;;;;;;;12.30;7.78;;;;;;;16.14;75.84;99569.09;5030887;28;20060;-87
2023/05/02 06:08:52;;;;;;;11.50;7.63;;;;;;;16.30;75.25;99578.50;5035842;28;20021;-87
2023/05/02 06:11:17;;;;;;;10.27;7.40;;;;;;;16.41;74.67;99574.16;5032493;28;20559;-86
2023/05/02 06:13:42;;;;;;;8.60;7.00;;;;;;;16.76;74.07;99596.25;5038122;28;20539;-87
2023/05/02 06:16:08;;;;;;;10.23;6.40;;;;;;;17.00;72.84;99593.59;5030386;28;20018;-87
2023/05/02 06:18:33;;;;;;;10.73;6.13;;;;;;;17.22;71.93;99593.69;5030111;28;20040;-87
2023/05/02 06:21:03;;;;;;;6.93;5.68;;;;;;;17.50;71.22;99602.13;5030219;28;20045;-87
2023/05/02 06:23:29;;;;;;;9.70;6.30;;;;;;;17.64;70.67;99597.47;5030094;28;20112;-87
2023/05/02 06:25:58;;;;;;;16.75;6.05;;;;;;;17.76;69.93;99585.19;5031455;28;20032;-88
2023/05/02 06:28:23;;;;;;;14.05;6.53;;;;;;;18.02;68.87;99566.53;5029808;28;20050;-86
2023/05/02 06:30:58;;;;;;;7.00;5.85;;;;;;;18.90;67.28;99606.88;5030192;28;20075;-86
2023/05/02 06:33:24;;;;;;;6.97;5.18;;;;;;;19.59;65.17;99606.44;5031749;28;20029;-87
2023/05/02 06:35:52;;;;;;;6.50;5.80;;;;;;;19.85;63.90;99580.44;5035504;28;20108;-88
2023/05/02 06:38:18;;;;;;;7.45;6.55;;;;;;;20.22;62.46;99592.25;5033631;28;20075;-87
2023/05/02 06:40:44;;;;;;;9.15;6.53;;;;;;;20.70;61.97;99604.81;5033663;28;20473;-86
2023/05/02 06:43:10;;;;;;;6.85;6.13;;;;;;;20.89;60.33;99579.16;5035053;28;20072;-86
2023/05/02 06:45:36;;;;;;;9.05;6.15;;;;;;;21.83;58.94;99613.81;5034833;28;20025;-91
2023/05/02 06:48:01;;;;;;;9.07;6.88;;;;;;;23.04;55.90;99620.72;5035059;28;20117;-88
2023/05/02 06:50:27;;;;;;;9.45;7.25;;;;;;;24.67;53.06;99606.78;5033388;28;20108;-90
2023/05/02 06:52:53;;;;;;;6.70;5.75;;;;;;;26.82;48.94;99627.44;5034760;28;20056;-89
2023/05/02 06:55:18;;;;;;;8.18;6.25;;;;;;;27.94;45.56;99599.09;5053267;28;20032;-86
2023/05/02 06:57:43;;;;;;;8.45;6.03;;;;;;;29.08;44.17;99620.91;5053548;28;20033;-86
2023/05/02 07:00:09;;;;;;;6.97;5.53;;;;;;;30.07;42.32;99627.03;5053517;28;20120;-86
2023/05/02 07:02:34;;;;;;;6.55;5.80;;;;;;;30.67;41.05;99624.59;5053111;28;20486;-86
2023/05/02 07:05:00;;;;;;;6.72;5.63;;;;;;;30.61;40.55;99629.97;5053376;28;20184;-85
2023/05/02 07:07:25;;;;;;;7.65;6.30;;;;;;;29.87;41.23;99634.13;5054202;28;20111;-85
2023/05/02 07:09:51;;;;;;;6.65;6.00;;;;;;;29.07;41.72;99636.13;5054942;28;20111;-85
2023/05/02 07:12:16;;;;;;;5.78;5.25;;;;;;;28.10;42.92;99638.22;5053140;28;20486;-86
2023/05/02 07:14:42;;;;;;;6.85;6.15;;;;;;;26.92;44.79;99645.91;5054491;28;20568;-86
2023/05/02 07:17:08;;;;;;;7.70;5.63;;;;;;;25.64;46.71;99638.00;5053129;28;20116;-86
2023/05/02 07:19:33;;;;;;;6.28;5.55;;;;;;;24.72;48.00;99631.09;5052602;28;20043;-85
2023/05/02 07:21:59;;;;;;;7.25;6.43;;;;;;;23.98;49.31;99636.09;5054059;28;20029;-86
2023/05/02 07:24:25;;;;;;;6.25;5.65;;;;;;;23.50;51.23;99647.19;5052455;28;20029;-85
2023/05/02 07:26:50;;;;;;;8.82;6.25;;;;;;;23.34;51.59;99650.53;5054085;28;20055;-85
2023/05/02 07:29:15;;;;;;;7.38;6.15;;;;;;;23.35;51.13;99646.94;5054126;28;20029;-86
2023/05/02 07:31:41;;;;;;;8.02;5.97;;;;;;;23.28;51.10;99633.41;5053011;28;20366;-86
2023/05/02 07:34:06;;;;;;;7.25;5.88;;;;;;;23.27;51.34;99647.69;5053972;28;20025;-85
2023/05/02 07:36:31;;;;;;;6.43;5.78;;;;;;;23.32;51.64;99664.00;5053816;28;20029;-85
2023/05/02 07:38:57;;;;;;;7.90;6.30;;;;;;;23.14;51.89;99655.22;5052643;28;20024;-85
2023/05/02 07:41:22;;;;;;;6.75;5.63;;;;;;;22.58;52.06;99611.94;5052474;28;20183;-86
2023/05/02 07:43:48;;;;;;;9.30;6.10;;;;;;;22.42;52.55;99630.34;5052538;28;20166;-85
2023/05/02 07:46:13;;;;;;;7.60;6.05;;;;;;;22.50;52.55;99664.09;5053285;28;20028;-85
2023/05/02 07:48:40;;;;;;;7.70;6.47;;;;;;;22.39;52.91;99683.72;5050475;28;20033;-85
2023/05/02 07:51:09;;;;;;;11.10;6.57;;;;;;;21.78;53.67;99637.25;5042124;28;20043;-85
2023/05/02 07:53:35;;;;;;;8.80;6.53;;;;;;;21.64;53.89;99643.00;5046229;28;20168;-85
2023/05/02 07:56:02;;;;;;;7.45;6.75;;;;;;;21.60;54.36;99653.06;5053993;28;20111;-86
2023/05/02 07:58:28;;;;;;;7.65;6.63;;;;;;;21.56;54.44;99651.66;5053505;28;20025;-85
2023/05/02 08:00:53;;;;;;;8.30;6.88;;;;;;;21.63;54.27;99671.34;5053327;28;20465;-86
2023/05/02 08:03:19;;;;;;;9.40;6.93;;;;;;;21.53;54.55;99680.25;5051948;28;20090;-86
2023/05/02 08:05:44;;;;;;;7.60;6.80;;;;;;;21.50;54.79;99697.28;5053111;28;20131;-85
2023/05/02 08:08:09;;;;;;;8.18;7.28;;;;;;;21.29;55.58;99699.22;5049387;28;20037;-86
2023/05/02 08:10:35;;;;;;;10.52;6.95;;;;;;;20.94;56.05;99660.81;5046175;28;20024;-85
2023/05/02 08:13:00;;;;;;;12.43;7.47;;;;;;;20.95;56.30;99683.72;5048130;28;20029;-86
2023/05/02 08:15:25;;;;;;;8.35;6.93;;;;;;;20.93;56.55;99689.13;5049392;28;20102;-86
2023/05/02 08:17:51;;;;;;;8.25;6.97;;;;;;;20.87;56.36;99684.38;5053439;28;20025;-87
2023/05/02 08:20:16;;;;;;;8.00;7.03;;;;;;;20.80;57.21;99693.84;5053228;28;20033;-86
2023/05/02 08:22:41;;;;;;;8.05;6.22;;;;;;;20.62;57.30;99683.06;5052940;28;20365;-86
2023/05/02 08:25:07;;;;;;;9.43;6.60;;;;;;;20.67;56.75;99691.44;5045398;28;20048;-87
2023/05/02 08:27:34;;;;;;;7.45;6.60;;;;;;;20.78;55.94;99703.75;5040837;28;20421;-86
2023/05/02 08:30:00;;;;;;;9.38;6.53;;;;;;;20.59;55.64;99674.56;5045421;28;20017;-87
2023/05/02 08:32:25;;;;;;;12.43;6.90;;;;;;;20.85;56.25;99704.00;5050309;28;20029;-87
2023/05/02 08:34:55;;;;;;;7.93;6.68;;;;;;;21.03;56.73;99706.84;5035387;28;20028;-87
2023/05/02 08:37:20;;;;;;;8.63;6.95;;;;;;;21.03;56.29;99707.69;5033217;28;20037;-87
2023/05/02 08:39:46;;;;;;;10.55;7.47;;;;;;;21.04;56.88;99712.00;5040285;28;20365;-86
2023/05/02 08:42:11;;;;;;;9.65;7.07;;;;;;;21.00;56.29;99720.38;5051981;28;20465;-87
2023/05/02 08:44:37;;;;;;;9.75;7.40;;;;;;;20.71;56.66;99688.53;5051802;28;20119;-87
2023/05/02 08:47:04;;;;;;;8.20;6.35;;;;;;;20.75;56.69;99704.00;5070528;28;20499;-87
2023/05/02 08:49:32;;;;;;;8.85;6.93;;;;;;;20.62;56.23;99691.00;5070397;28;20036;-87
2023/05/02 08:51:59;;;;;;;8.10;5.95;;;;;;;20.81;56.55;99715.84;5071024;28;20064;-87
2023/05/02 08:54:25;;;;;;;11.65;6.57;;;;;;;20.87;56.79;99713.50;5054147;28;20428;-84
2023/05/02 08:56:52;;;;;;;7.00;6.30;;;;;;;20.95;56.24;99726.06;5069768;28;20044;-84
2023/05/02 08:59:18;;;;;;;9.15;6.93;;;;;;;20.89;56.39;99718.66;5070857;28;20025;-84
2023/05/02 09:01:47;;;;;;;9.45;7.57;;;;;;;21.02;56.62;99721.03;5070271;28;20043;-85
2023/05/02 09:04:13;;;;;;;8.45;6.85;;;;;;;21.03;56.35;99728.88;5070386;28;20420;-85
2023/05/02 09:06:39;;;;;;;9.63;7.53;;;;;;;20.74;56.35;99696.19;5070591;28;20037;-85
2023/05/02 09:09:04;;;;;;;7.43;6.57;;;;;;;20.90;56.40;99728.28;5070573;28;20113;-85
2023/05/02 09:11:30;;;;;;;7.97;6.60;;;;;;;20.97;56.18;99736.50;5069472;28;20115;-85
2023/05/02 09:13:57;;;;;;;9.00;6.65;;;;;;;20.92;56.22;99731.63;5069964;28;20124;-85
2023/05/02 09:16:25;;;;;;;9.00;7.28;;;;;;;20.88;55.96;99730.22;5069542;28;20106;-85
2023/05/02 09:18:56;;;;;;;8.73;7.15;;;;;;;20.76;56.27;99707.47;5055186;28;20036;-85
2023/05/02 09:21:33;;;;;;;11.07;7.50;;;;;;;20.72;55.78;99711.38;5051110;28;20025;-85
2023/05/02 09:23:59;;;;;;;9.35;7.45;;;;;;;20.82;56.19;99742.19;5051140;28;20472;-85
2023/05/02 09:26:28;;;;;;;10.18;7.47;;;;;;;20.89;55.73;99756.56;5052042;28;20037;-85
2023/05/02 09:28:54;;;;;;;10.23;6.70;;;;;;;20.78;56.23;99732.03;5051097;28;20045;-85
2023/05/02 09:31:26;;;;;;;10.98;7.32;;;;;;;20.92;56.57;99743.06;5052169;28;20028;-84
2023/05/02 09:33:52;;;;;;;;;;;;;;;20.99;56.62;99764.53;5052805;28;20104;-85
2023/05/02 09:36:19;;;;;;;9.02;6.65;;;;;;;20.97;56.14;99760.34;5052718;28;20007;-85
2023/05/02 09:38:47;;;;;;;7.65;6.80;;;;;;;20.51;55.49;99685.81;5052480;28;20029;-85
2023/05/02 09:41:13;;;;;;;8.27;7.03;;;;;;;21.01;55.02;99777.63;5050760;28;20025;-85
2023/05/02 09:43:39;;;;;;;9.57;7.00;;;;;;;20.89;54.95;99756.56;5050474;28;20036;-85
2023/05/02 09:46:09;;;;;;;8.18;6.50;;;;;;;21.03;55.72;99783.66;5052261;28;20024;-85
2023/05/02 09:48:55;;;;;;;8.25;7.38;;;;;;;20.99;55.40;99774.31;5052038;28;20040;-85
2023/05/02 09:51:22;;;;;;;9.25;7.30;;;;;;;21.03;55.53;99786.31;5069390;28;20043;-85
2023/05/02 09:53:48;;;;;;;7.28;6.57;;;;;;;20.99;55.38;99774.31;5052425;28;20047;-85
2023/05/02 09:56:14;;;;;;;8.00;6.93;;;;;;;20.95;55.42;99752.53;5069526;28;20063;-85
2023/05/02 09:58:40;;;;;;;7.88;7.07;;;;;;;21.17;55.11;99781.44;5052834;28;20472;-85
2023/05/02 10:01:06;;;;;;;9.60;7.05;;;;;;;21.29;54.90;99795.41;5069354;28;20127;-85
2023/05/02 10:03:36;;;;;;;7.18;6.47;;;;;;;21.12;55.05;99751.88;5052519;28;20094;-84
2023/05/02 10:06:07;;;;;;;9.00;7.73;;;;;;;21.35;54.88;99792.25;5052615;28;20033;-85
2023/05/02 10:08:32;;;;;;;9.10;7.53;;;;;;;21.46;55.10;99793.94;5071072;28;20021;-85
2023/05/02 10:11:01;;;;;;;9.13;7.90;;;;;;;21.45;55.04;99780.81;5056161;28;20673;-84
2023/05/02 10:13:31;;;;;;;9.65;6.85;;;;;;;21.47;55.22;99789.47;5056192;28;20028;-85
2023/05/02 10:16:03;;;;;;;13.32;7.68;;;;;;;21.59;53.96;99809.59;5056649;28;20060;-84
2023/05/02 10:18:55;;;;;;;7.50;5.88;;;;;;;21.54;52.88;99799.41;5056140;28;20032;-85
2023/05/02 10:21:26;;;;;;;6.03;5.00;;;;;;;21.53;51.48;99796.88;5060837;28;20016;-85
2023/05/02 10:23:52;;;;;;;;;;;;;;;21.51;51.11;99799.66;5060213;28;20079;-84
2023/05/02 10:26:20;;;;;;;6.13;5.20;;;;;;;21.52;51.83;99771.34;5054599;28;19909;-85
2023/05/02 10:28:46;;;;;;;6.88;5.28;;;;;;;21.84;52.40;99800.25;5054409;28;20061;-85
2023/05/02 10:31:13;;;;;;;8.27;5.80;;;;;;;21.89;50.56;99809.44;5070510;28;20025;-85
2023/05/02 10:33:39;;;;;;;9.27;6.07;;;;;;;21.88;49.74;99802.47;5073782;28;20036;-84
2023/05/02 10:36:07;;;;;;;8.90;5.68;;;;;;;21.88;49.03;99807.78;5067562;28;20021;-85
2023/05/02 10:38:32;;;;;;;7.55;5.53;;;;;;;21.86;48.72;99803.56;5062779;28;20040;-84
2023/05/02 10:41:04;;;;;;;9.13;6.60;;;;;;;21.95;49.08;99809.84;5063020;28;20021;-85
2023/05/02 10:43:32;;;;;;;8.27;6.22;;;;;;;21.97;49.43;99802.59;5058261;28;20055;-84
2023/05/02 10:45:58;;;;;;;7.32;6.18;;;;;;;22.04;49.55;99803.72;5054071;28;20080;-85
2023/05/02 10:48:26;;;;;;;8.80;6.65;;;;;;;22.14;49.71;99813.38;5053936;28;20029;-85
2023/05/02 10:50:54;;;;;;;8.57;6.65;;;;;;;21.91;49.37;99761.56;5053922;28;20354;-85
2023/05/02 10:53:35;;;;;;;8.55;7.28;;;;;;;22.22;49.59;99815.31;5053578;28;20068;-85
2023/05/02 10:56:20;;;;;;;9.18;7.05;;;;;;;21.89;50.02;99755.56;5053676;28;20060;-85
2023/05/02 10:58:50;;;;;;;8.23;7.30;;;;;;;22.31;49.82;99813.63;5053188;28;20120;-85
2023/05/02 11:01:36;;;;;;;7.88;7.10;;;;;;;22.19;50.44;99793.53;5053465;28;20047;-85
2023/05/02 11:04:06;;;;;;;10.35;7.68;;;;;;;22.42;49.87;99818.78;5053411;28;20107;-85
2023/05/02 11:06:56;;;;;;;10.82;7.10;;;;;;;22.38;50.20;99804.13;5053292;28;20027;-85
2023/05/02 11:09:21;;;;;;;8.15;7.43;;;;;;;22.45;50.28;99818.47;5052175;28;20055;-85
2023/05/02 11:11:51;;;;;;;8.13;7.32;;;;;;;22.38;49.98;99817.38;5034973;28;20044;-86
2023/05/02 11:14:29;;;;;;;9.63;8.50;;;;;;;22.42;49.89;99829.41;5052020;28;20049;-85
2023/05/02 11:16:57;;;;;;;11.38;8.52;;;;;;;22.31;49.46;99821.59;5035174;28;20545;-86
2023/05/02 11:19:24;;;;;;;9.55;8.05;;;;;;;22.15;50.10;99799.13;5034496;28;20322;-85
2023/05/02 11:21:49;;;;;;;9.07;7.93;;;;;;;22.29;50.04;99812.91;5034787;28;20047;-85
2023/05/02 11:24:38;;;;;;;9.30;7.55;;;;;;;22.32;50.32;99824.09;5035261;28;20036;-85
2023/05/02 11:27:28;;;;;;;9.95;7.72;;;;;;;22.29;50.01;99827.03;5051852;28;20041;-85
2023/05/02 11:29:55;;;;;;;9.52;7.95;;;;;;;22.20;50.56;99798.69;5034840;28;20020;-85
2023/05/02 11:32:21;;;;;;;9.02;8.13;;;;;;;22.19;50.06;99804.16;5035284;28;20037;-85
2023/05/02 11:34:51;;;;;;;9.00;7.47;;;;;;;22.23;50.14;99805.53;5033357;28;20037;-85